Time;durP1;ratioP1;P1;durP2;ratioP2;P2;SDS_P1;SDS_P2;PMS_P1;PMS_P2;Temp;Humidity;BMP_temperature;BMP_pressure;BME280_temperature;BME280_humidity;BME280_pressure;Samples;Min_cycle;Max_cycle;Signal;HPM_P1;HPM_P2
2021/09/13 00:02:18;;;;;;;;;;;;;;;13.78;90.91;101878.25;5049042;28;19928;-50
2021/09/13 00:04:45;;;;;;;;;;;;;;;13.76;90.92;101874.84;5047944;28;19929;-43
2021/09/13 00:07:12;;;;;;;;;;;;;;;13.75;90.54;101878.44;5048949;28;19932;-42
2021/09/13 00:09:38;;;;;;;;;;;;;;;13.73;90.53;101877.66;5049650;28;20371;-45
2021/09/13 00:12:05;;;;;;;;;;;;;;;13.71;90.84;101875.13;5048725;28;20023;-46
2021/09/13 00:14:32;;;;;;;;;;;;;;;13.69;91.01;101875.22;5031402;28;19924;-45
2021/09/13 00:16:58;;;;;;;;;;;;;;;13.62;91.08;101881.84;5048697;28;19926;-51
2021/09/13 00:19:25;;;;;;;;;;;;;;;13.60;90.83;101877.59;5048994;28;20422;-42
2021/09/13 00:21:52;;;;;;;;;;;;;;;13.54;90.47;101884.09;5049783;28;19979;-46
2021/09/13 00:24:19;;;;;;;;;;;;;;;13.57;90.08;101875.97;5049232;28;19925;-43
2021/09/13 00:26:45;;;;;;;;;;;;;;;13.57;90.16;101873.34;5048203;28;19974;-43
2021/09/13 00:29:12;;;;;;;;;;;;;;;13.47;90.16;101875.69;5047404;28;20360;-44
2021/09/13 00:31:39;;;;;;;;;;;;;;;13.32;92.40;101877.44;5049478;28;19924;-45
2021/09/13 00:34:05;;;;;;;;;;;;;;;13.37;91.91;101874.56;5048776;28;19925;-45
2021/09/13 00:36:32;;;;;;;;;;;;;;;13.33;91.61;101873.00;5049556;28;19925;-45
2021/09/13 00:38:59;;;;;;;;;;;;;;;13.41;91.38;101876.06;5049320;28;19925;-52
2021/09/13 00:41:25;;;;;;;;;;;;;;;13.34;91.78;101867.63;5048874;28;19991;-50
2021/09/13 00:43:52;;;;;;;;;;;;;;;13.28;92.00;101873.28;5046829;28;20346;-51
2021/09/13 00:46:19;;;;;;;;;;;;;;;13.24;92.64;101874.41;5050677;28;19975;-52
2021/09/13 00:48:45;;;;;;;;;;;;;;;13.32;92.15;101869.53;5052769;28;20372;-51
2021/09/13 00:51:12;;;;;;;;;;;;;;;13.27;92.09;101868.09;5052843;28;19978;-50
2021/09/13 00:53:39;;;;;;;;;;;;;;;13.22;92.02;101867.53;5052913;28;19931;-52
2021/09/13 00:56:07;;;;;;;;;;;;;;;13.23;91.52;101869.22;5051093;28;19925;-52
2021/09/13 00:58:36;;;;;;;;;;;;;;;13.21;91.45;101871.97;5049889;28;20479;-52
2021/09/13 01:01:03;;;;;;;;;;;;;;;13.13;91.86;101863.63;5051837;28;19929;-50
2021/09/13 01:03:31;;;;;;;;;;;;;;;13.03;91.16;101863.34;5051211;28;19983;-44
2021/09/13 01:05:58;;;;;;;;;;;;;;;13.10;91.38;101864.69;5052639;28;19925;-43
2021/09/13 01:08:24;;;;;;;;;;;;;;;13.02;91.76;101864.28;5051242;28;19929;-44
2021/09/13 01:10:52;;;;;;;;;;;;;;;13.07;91.93;101864.84;5051233;28;19979;-43
2021/09/13 01:13:18;;;;;;;;;;;;;;;13.05;92.03;101856.19;5050677;28;19972;-47
2021/09/13 01:15:45;;;;;;;;;;;;;;;13.02;92.20;101851.94;5052542;28;19925;-43
2021/09/13 01:18:12;;;;;;;;;;;;;;;13.14;92.23;101858.28;5052256;28;19925;-44
2021/09/13 01:20:38;;;;;;;;;;;;;;;13.10;92.83;101848.84;5052197;28;19931;-41
2021/09/13 01:23:11;;;;;;;;;;;;;;;13.01;93.39;101850.22;5052239;28;20300;-45
2021/09/13 01:25:37;;;;;;;;;;;;;;;12.98;93.46;101850.41;5050467;28;20410;-41
2021/09/13 01:28:04;;;;;;;;;;;;;;;13.07;93.06;101856.09;5049618;28;19963;-48
2021/09/13 01:30:31;;;;;;;;;;;;;;;13.03;93.22;101850.13;5052363;28;21067;-47
2021/09/13 01:32:57;;;;;;;;;;;;;;;12.91;93.89;101858.78;5051000;28;19924;-52
2021/09/13 01:35:24;;;;;;;;;;;;;;;12.85;94.14;101855.56;5049731;28;19925;-50
2021/09/13 01:37:51;;;;;;;;;;;;;;;12.82;93.82;101860.19;5051962;28;19933;-52
2021/09/13 01:40:18;;;;;;;;;;;;;;;12.78;93.54;101863.94;5050524;28;19924;-48
2021/09/13 01:42:45;;;;;;;;;;;;;;;12.81;93.25;101858.47;5050333;28;19971;-49
2021/09/13 01:45:11;;;;;;;;;;;;;;;12.82;94.08;101855.75;5051691;28;19925;-49
2021/09/13 01:47:38;;;;;;;;;;;;;;;12.74;94.84;101859.78;5052241;28;19968;-52
2021/09/13 01:50:05;;;;;;;;;;;;;;;12.78;94.90;101854.22;5050485;28;19933;-52
2021/09/13 01:52:31;;;;;;;;;;;;;;;12.81;93.81;101866.41;5049895;28;20418;-50
2021/09/13 01:54:58;;;;;;;;;;;;;;;12.85;93.82;101860.81;5050300;28;19932;-51
2021/09/13 01:57:24;;;;;;;;;;;;;;;12.78;93.98;101856.84;5049735;28;20395;-49
2021/09/13 01:59:51;;;;;;;;;;;;;;;12.75;94.19;101859.69;5050355;28;20435;-51
2021/09/13 02:02:18;;;;;;;;;;;;;;;12.70;94.22;101856.47;5051487;28;19951;-47
2021/09/13 02:04:45;;;;;;;;;;;;;;;12.72;94.13;101856.38;5051216;28;19925;-48
2021/09/13 02:07:12;;;;;;;;;;;;;;;12.81;94.14;101863.75;5050176;28;20454;-50
2021/09/13 02:09:38;;;;;;;;;;;;;;;12.67;94.26;101860.13;5049976;28;20449;-50
2021/09/13 02:12:05;;;;;;;;;;;;;;;12.61;93.23;101860.50;5049178;28;19925;-50
2021/09/13 02:14:32;;;;;;;;;;;;;;;12.63;94.17;101858.59;5050602;28;20278;-50
2021/09/13 02:16:58;;;;;;;;;;;;;;;12.63;94.65;101857.75;5050556;28;19928;-48
2021/09/13 02:19:25;;;;;;;;;;;;;;;12.71;93.98;101858.16;5032821;28;20024;-49
2021/09/13 02:21:52;;;;;;;;;;;;;;;12.69;93.65;101854.75;5049964;28;19932;-48
2021/09/13 02:24:18;;;;;;;;;;;;;;;12.65;92.97;101864.66;5050014;28;19956;-51
2021/09/13 02:26:45;;;;;;;;;;;;;;;12.63;92.89;101853.31;5048763;28;19929;-52
2021/09/13 02:29:11;;;;;;;;;;;;;;;12.61;92.94;101854.34;5049954;28;20390;-53
2021/09/13 02:31:38;;;;;;;;;;;;;;;12.65;92.40;101859.38;5051319;28;19929;-51
2021/09/13 02:34:05;;;;;;;;;;;;;;;12.55;92.91;101857.34;5050444;28;20019;-51
2021/09/13 02:36:31;;;;;;;;;;;;;;;12.55;93.19;101863.47;5050432;28;19971;-49
2021/09/13 02:38:58;;;;;;;;;;;;;;;12.55;92.63;101858.19;5050033;28;19978;-50
2021/09/13 02:41:25;;;;;;;;;;;;;;;12.56;92.36;101854.63;5050176;28;19929;-48
2021/09/13 02:43:51;;;;;;;;;;;;;;;12.46;92.36;101853.44;5049301;28;20277;-52
2021/09/13 02:46:18;;;;;;;;;;;;;;;12.45;92.26;101857.03;5050993;28;19925;-43
2021/09/13 02:48:45;;;;;;;;;;;;;;;12.42;92.27;101852.78;5050280;28;19929;-42
2021/09/13 02:51:12;;;;;;;;;;;;;;;12.46;93.00;101849.03;5050339;28;19932;-46
2021/09/13 02:53:39;;;;;;;;;;;;;;;12.49;93.79;101848.00;5049734;28;20012;-43
2021/09/13 02:56:06;;;;;;;;;;;;;;;12.40;94.77;101848.53;5049317;28;19925;-43
2021/09/13 02:58:32;;;;;;;;;;;;;;;12.36;94.72;101849.63;5048273;28;19924;-41
2021/09/13 03:00:59;;;;;;;;;;;;;;;12.32;94.16;101839.28;5050190;28;20395;-43
2021/09/13 03:03:26;;;;;;;;;;;;;;;12.36;94.92;101847.00;5049106;28;20587;-42
2021/09/13 03:05:53;;;;;;;;;;;;;;;12.44;94.35;101842.97;5032519;28;20387;-47
2021/09/13 03:08:20;;;;;;;;;;;;;;;12.38;94.49;101845.97;5049832;28;19932;-44
2021/09/13 03:10:46;;;;;;;;;;;;;;;12.37;94.28;101846.06;5049145;28;19925;-44
2021/09/13 03:13:13;;;;;;;;;;;;;;;12.33;94.22;101842.75;5048625;28;19925;-44
2021/09/13 03:15:40;;;;;;;;;;;;;;;12.31;93.94;101840.19;5049103;28;20023;-42
2021/09/13 03:18:06;;;;;;;;;;;;;;;12.23;94.41;101834.50;5049046;28;19987;-44
2021/09/13 03:20:33;;;;;;;;;;;;;;;12.32;94.22;101830.50;5049763;28;19929;-43
2021/09/13 03:23:00;;;;;;;;;;;;;;;12.33;94.33;101830.41;5050217;28;19928;-42
2021/09/13 03:25:26;;;;;;;;;;;;;;;12.27;93.70;101841.31;5049415;28;19933;-45
2021/09/13 03:27:53;;;;;;;;;;;;;;;12.24;94.62;101835.34;5048192;28;19928;-47
2021/09/13 03:30:20;;;;;;;;;;;;;;;12.18;94.27;101833.91;5049725;28;19925;-45
2021/09/13 03:32:46;;;;;;;;;;;;;;;12.24;94.15;101828.28;5048413;28;19928;-53
2021/09/13 03:35:13;;;;;;;;;;;;;;;12.18;95.07;101824.19;5048942;28;19931;-51
2021/09/13 03:37:40;;;;;;;;;;;;;;;12.19;95.13;101832.97;5049926;28;19951;-51
2021/09/13 03:40:07;;;;;;;;;;;;;;;12.13;94.50;101830.69;5049757;28;19959;-51
2021/09/13 03:42:33;;;;;;;;;;;;;;;12.22;94.34;101838.06;5030542;28;19936;-53
2021/09/13 03:45:00;;;;;;;;;;;;;;;12.13;94.99;101836.81;5050026;28;19936;-52
2021/09/13 03:47:26;;;;;;;;;;;;;;;12.13;96.34;101844.72;5048631;28;19929;-49
2021/09/13 03:49:53;;;;;;;;;;;;;;;12.11;96.62;101840.47;5031903;28;19924;-49
2021/09/13 03:52:20;;;;;;;;;;;;;;;12.09;97.31;101835.28;5049810;28;19955;-43
2021/09/13 03:54:46;;;;;;;;;;;;;;;12.03;97.60;101840.06;5049175;28;19945;-43
2021/09/13 03:57:13;;;;;;;;;;;;;;;12.05;97.58;101835.53;5048403;28;19925;-42
2021/09/13 03:59:39;;;;;;;;;;;;;;;12.14;96.82;101835.03;5048535;28;19931;-42
2021/09/13 04:02:06;;;;;;;;;;;;;;;12.13;96.95;101831.53;5048640;28;19928;-53
2021/09/13 04:04:34;;;;;;;;;;;;;;;12.17;96.90;101837.47;5049619;28;19963;-51
2021/09/13 04:07:04;;;;;;;;;;;;;;;12.10;97.34;101838.75;5032031;28;19932;-51
2021/09/13 04:11:58;;;;;;;;;;;;;;;12.09;97.06;101830.00;5048799;28;20672;-50
2021/09/13 04:14:26;;;;;;;;;;;;;;;12.11;97.06;101822.00;5047204;28;19928;-51
2021/09/13 04:16:52;;;;;;;;;;;;;;;12.15;96.80;101823.53;5050083;28;19929;-53
2021/09/13 04:19:19;;;;;;;;;;;;;;;12.17;97.06;101826.94;5048813;28;19925;-49
2021/09/13 04:21:46;;;;;;;;;;;;;;;12.08;98.18;101830.06;5050810;28;20067;-53
2021/09/13 04:24:14;;;;;;;;;;;;;;;12.03;98.54;101827.72;5052740;28;19982;-49
2021/09/13 04:26:40;;;;;;;;;;;;;;;12.00;98.70;101827.88;5051431;28;19925;-50
2021/09/13 04:29:07;;;;;;;;;;;;;;;12.01;98.82;101824.28;5052407;28;19928;-51
2021/09/13 04:31:34;;;;;;;;;;;;;;;11.96;98.96;101824.56;5051867;28;20019;-51
2021/09/13 04:34:00;;;;;;;;;;;;;;;12.02;98.73;101826.00;5052622;28;19991;-53
2021/09/13 04:36:27;;;;;;;;;;;;;;;12.07;97.87;101831.03;5051798;28;19931;-52
2021/09/13 04:38:54;;;;;;;;;;;;;;;12.05;97.45;101832.88;5035616;28;20288;-51
2021/09/13 04:41:20;;;;;;;;;;;;;;;11.97;96.64;101836.81;5052728;28;20501;-43
2021/09/13 04:43:47;;;;;;;;;;;;;;;11.97;97.28;101836.81;5051657;28;19925;-41
2021/09/13 04:46:14;;;;;;;;;;;;;;;12.08;96.70;101835.34;5051798;28;19960;-42
2021/09/13 04:48:41;;;;;;;;;;;;;;;12.05;96.60;101832.88;5051830;28;19925;-42
2021/09/13 04:51:07;;;;;;;;;;;;;;;12.08;95.48;101837.97;5052986;28;20342;-43
2021/09/13 04:53:34;;;;;;;;;;;;;;;12.05;95.81;101838.16;5052092;28;20387;-42
2021/09/13 04:56:01;;;;;;;;;;;;;;;12.05;95.75;101832.88;5052630;28;19928;-45
2021/09/13 04:58:27;;;;;;;;;;;;;;;11.97;96.23;101828.91;5050102;28;20495;-41
2021/09/13 05:00:54;;;;;;;;;;;;;;;11.94;96.69;101829.09;5052517;28;19931;-42
2021/09/13 05:03:21;;;;;;;;;;;;;;;11.89;96.85;101841.63;5052545;28;19924;-42
2021/09/13 05:05:48;;;;;;;;;;;;;;;11.94;97.12;101838.72;5052245;28;19996;-45
2021/09/13 05:08:14;;;;;;;;;;;;;;;11.92;97.28;101844.09;5051063;28;19990;-43
2021/09/13 05:10:41;;;;;;;;;;;;;;;11.90;96.83;101850.38;5052359;28;20334;-43
2021/09/13 05:13:08;;;;;;;;;;;;;;;11.91;96.77;101852.91;5051120;28;20388;-44
2021/09/13 05:15:34;;;;;;;;;;;;;;;11.99;95.28;101853.38;5051285;28;19975;-52
2021/09/13 05:18:01;;;;;;;;;;;;;;;12.03;95.27;101856.72;5052491;28;20366;-51
2021/09/13 05:20:28;;;;;;;;;;;;;;;12.02;95.22;101860.28;5050901;28;19932;-52
2021/09/13 05:22:54;;;;;;;;;;;;;;;11.93;95.65;101861.59;5050975;28;19994;-52
2021/09/13 05:25:21;;;;;;;;;;;;;;;12.03;95.21;101855.88;5051968;28;19932;-52
2021/09/13 05:27:48;;;;;;;;;;;;;;;12.07;95.76;101865.31;5049494;28;19924;-53
2021/09/13 05:30:15;;;;;;;;;;;;;;;12.00;96.46;101860.38;5051885;28;19998;-44
2021/09/13 05:32:42;;;;;;;;;;;;;;;11.92;96.77;101859.91;5051916;28;19925;-52
2021/09/13 05:35:09;;;;;;;;;;;;;;;11.95;96.50;101869.47;5050247;28;19935;-45
2021/09/13 05:37:36;;;;;;;;;;;;;;;11.97;96.42;101868.44;5052016;28;19987;-42
2021/09/13 05:40:04;;;;;;;;;;;;;;;12.00;96.35;101864.78;5051871;28;20399;-42
2021/09/13 05:42:30;;;;;;;;;;;;;;;12.03;97.07;101869.06;5049428;28;19933;-42
2021/09/13 05:44:57;;;;;;;;;;;;;;;12.12;96.14;101871.16;5050845;28;19929;-42
2021/09/13 05:47:24;;;;;;;;;;;;;;;12.13;96.64;101872.88;5051924;28;19975;-42
2021/09/13 05:49:50;;;;;;;;;;;;;;;12.08;97.39;101875.78;5051464;28;20043;-44
2021/09/13 05:52:17;;;;;;;;;;;;;;;12.12;96.58;101869.38;5051725;28;19928;-42
2021/09/13 05:54:44;;;;;;;;;;;;;;;12.15;97.37;101871.00;5051178;28;19925;-41
2021/09/13 05:57:10;;;;;;;;;;;;;;;12.17;97.32;101874.41;5049053;28;20388;-43
2021/09/13 05:59:37;;;;;;;;;;;;;;;12.29;97.00;101872.88;5050376;28;19925;-44
2021/09/13 06:02:03;;;;;;;;;;;;;;;12.25;97.53;101876.63;5051730;28;19979;-42
2021/09/13 06:04:32;;;;;;;;;;;;;;;12.25;97.47;101877.47;5051228;28;20422;-42
2021/09/13 06:06:59;;;;;;;;;;;;;;;12.30;97.27;101877.22;5051626;28;20055;-42
2021/09/13 06:09:26;;;;;;;;;;;;;;;12.30;97.26;101874.59;5050785;28;19929;-42
2021/09/13 06:11:52;;;;;;;;;;;;;;;12.34;98.28;101876.94;5050860;28;20366;-41
2021/09/13 06:14:23;;;;;;;;;;;;;;;12.42;98.25;101876.53;5049964;28;20344;-42
2021/09/13 06:16:50;;;;;;;;;;;;;;;12.45;98.48;101876.34;5051191;28;19932;-42
2021/09/13 06:19:16;;;;;;;;;;;;;;;12.52;98.49;101882.97;5049975;28;19931;-42
2021/09/13 06:21:43;;;;;;;;;;;;;;;12.52;98.71;101876.84;5051482;28;19952;-42
2021/09/13 06:24:09;;;;;;;;;;;;;;;12.57;98.72;101874.81;5051102;28;19975;-42
2021/09/13 06:26:36;;;;;;;;;;;;;;;12.55;99.28;101881.94;5050872;28;20479;-42
2021/09/13 06:29:04;;;;;;;;;;;;;;;12.57;99.63;101872.16;5049518;28;19929;-53
2021/09/13 06:31:30;;;;;;;;;;;;;;;12.64;99.64;101885.84;5049292;28;20027;-43
2021/09/13 06:33:57;;;;;;;;;;;;;;;12.68;99.59;101880.31;5049414;28;19933;-44
2021/09/13 06:36:26;;;;;;;;;;;;;;;12.85;99.19;101881.13;5049811;28;19925;-43
2021/09/13 06:38:53;;;;;;;;;;;;;;;12.90;99.05;101888.75;5033042;28;19928;-42
2021/09/13 06:41:21;;;;;;;;;;;;;;;12.98;98.67;101891.81;5050033;28;20412;-43
2021/09/13 06:43:48;;;;;;;;;;;;;;;12.99;98.96;101894.38;5048340;28;19924;-43
2021/09/13 06:49:18;;;;;;;;;;;;;;;13.06;99.77;101894.00;5027752;28;19929;-42
2021/09/13 06:51:45;;;;;;;;;;;;;;;13.09;99.69;101885.88;5046385;28;19956;-45
2021/09/13 06:54:11;;;;;;;;;;;;;;;13.16;100.00;101890.72;5050060;28;19936;-44
2021/09/13 06:56:38;;;;;;;;;;;;;;;13.26;100.00;101891.00;5032053;28;20440;-42
2021/09/13 06:59:05;;;;;;;;;;;;;;;13.34;100.00;101894.03;5047350;28;20418;-43
2021/09/13 07:01:32;;;;;;;;;;;;;;;13.45;100.00;101884.66;5050175;28;19936;-45
2021/09/13 07:04:00;;;;;;;;;;;;;;;13.57;100.00;101878.63;5048916;28;19929;-42
2021/09/13 07:06:27;;;;;;;;;;;;;;;13.66;100.00;101886.00;5049981;28;19936;-42
2021/09/13 07:08:55;;;;;;;;;;;;;;;13.71;98.86;101893.63;5049374;28;20432;-44
2021/09/13 07:11:21;;;;;;;;;;;;;;;13.84;98.99;101896.38;5049547;28;20426;-45
2021/09/13 07:13:48;;;;;;;;;;;;;;;13.93;98.44;101898.41;5048675;28;20000;-44
2021/09/13 07:16:20;;;;;;;;;;;;;;;14.05;98.86;101912.69;5049600;28;19934;-45
2021/09/13 07:18:47;;;;;;;;;;;;;;;14.22;99.01;101916.91;5049798;28;19986;-41
2021/09/13 07:21:14;;;;;;;;;;;;;;;14.35;99.11;101909.03;5050147;28;19928;-48
2021/09/13 07:23:41;;;;;;;;;;;;;;;14.47;96.63;101918.81;5049790;28;19935;-48
2021/09/13 07:26:07;;;;;;;;;;;;;;;14.54;95.86;101906.88;5049984;28;20019;-49
2021/09/13 07:28:34;;;;;;;;;;;;;;;14.77;97.30;101916.97;5048722;28;20334;-53
2021/09/13 07:31:01;;;;;;;;;;;;;;;14.97;94.90;101923.56;5050163;28;20337;-49
2021/09/13 07:33:27;;;;;;;;;;;;;;;15.19;95.88;101920.34;5049681;28;19924;-52
2021/09/13 07:35:54;;;;;;;;;;;;;;;15.44;92.88;101921.31;5049376;28;19925;-50
2021/09/13 07:38:21;;;;;;;;;;;;;;;15.68;90.97;101916.13;5049762;28;19928;-53
2021/09/13 07:40:47;;;;;;;;;;;;;;;15.78;90.26;101911.03;5049815;28;19991;-49
2021/09/13 07:43:14;;;;;;;;;;;;;;;15.86;89.03;101914.84;5047070;28;19925;-49
2021/09/13 07:45:41;;;;;;;;;;;;;;;16.14;90.63;101909.38;5049401;28;19925;-50
2021/09/13 07:48:07;;;;;;;;;;;;;;;16.27;90.36;101914.66;5048616;28;19925;-52
2021/09/13 07:50:34;;;;;;;;;;;;;;;16.41;87.82;101919.78;5049337;28;19955;-50
2021/09/13 07:53:01;;;;;;;;;;;;;;;16.70;87.01;101916.78;5049315;28;19980;-44
2021/09/13 07:55:27;;;;;;;;;;;;;;;16.92;86.17;101925.84;5051113;28;19929;-44
2021/09/13 07:57:54;;;;;;;;;;;;;;;16.97;85.52;101924.53;5052076;28;19986;-43
2021/09/13 08:00:38;;;;;;;;;;;;;;;17.35;84.17;101918.13;5052509;28;19982;-42
2021/09/13 08:03:05;;;;;;;;;;;;;;;17.47;83.72;101923.47;5053450;28;19928;-44
2021/09/13 08:05:32;;;;;;;;;;;;;;;17.60;83.51;101926.00;5052266;28;19935;-44
2021/09/13 08:07:58;;;;;;;;;;;;;;;17.66;80.80;101929.03;5053538;28;19925;-42
2021/09/13 08:10:25;;;;;;;;;;;;;;;17.68;81.70;101927.13;5053541;28;19990;-43
2021/09/13 08:12:53;;;;;;;;;;;;;;;18.05;80.89;101937.53;5051877;28;19925;-43
2021/09/13 08:15:23;;;;;;;;;;;;;;;18.30;78.35;101929.41;5051467;28;19955;-42
2021/09/13 08:17:49;;;;;;;;;;;;;;;18.34;78.40;101937.00;5053481;28;19929;-45
2021/09/13 08:20:17;;;;;;;;;;;;;;;18.49;77.19;101934.91;5051390;28;19925;-54
2021/09/13 08:22:43;;;;;;;;;;;;;;;18.71;78.08;101944.63;5053412;28;19932;-54
2021/09/13 08:25:10;;;;;;;;;;;;;;;18.73;76.61;101942.72;5052321;28;19932;-52
2021/09/13 08:27:37;;;;;;;;;;;;;;;18.89;76.78;101941.47;5050892;28;19975;-47
2021/09/13 08:30:05;;;;;;;;;;;;;;;19.22;76.59;101942.25;5052873;28;19938;-45
2021/09/13 08:32:32;;;;;;;;;;;;;;;19.15;75.81;101946.44;5034695;28;20024;-45
2021/09/13 08:34:58;;;;;;;;;;;;;;;19.19;74.64;101950.53;5052222;28;19928;-43
2021/09/13 08:37:26;;;;;;;;;;;;;;;19.14;74.71;101952.72;5052549;28;19982;-49
2021/09/13 08:39:52;;;;;;;;;;;;;;;19.17;73.85;101953.31;5053044;28;20323;-47
2021/09/13 08:42:19;;;;;;;;;;;;;;;19.14;73.93;101958.91;5049908;28;19925;-45
2021/09/13 08:44:49;;;;;;;;;;;;;;;19.37;73.54;101959.63;5051566;28;19925;-43
2021/09/13 08:47:24;;;;;;;;;;;;;;;19.55;72.96;101954.53;5052716;28;19933;-46
2021/09/13 08:49:55;;;;;;;;;;;;;;;19.65;72.27;101962.59;5048460;28;20363;-43
2021/09/13 08:52:22;;;;;;;;;;;;;;;19.68;71.20;101964.16;5052060;28;19964;-43
2021/09/13 08:54:48;;;;;;;;;;;;;;;19.74;71.02;101955.59;5050642;28;19971;-47
2021/09/13 08:57:17;;;;;;;;;;;;;;;19.76;70.07;101957.16;5049911;28;19928;-48
2021/09/13 08:59:45;;;;;;;;;;;;;;;19.85;70.14;101954.69;5051054;28;20043;-43
2021/09/13 09:02:11;;;;;;;;;;;;;;;19.93;70.71;101954.88;5051427;28;20043;-46
2021/09/13 09:04:55;;;;;;;;;;;;;;;19.96;69.73;101959.97;5051402;28;19928;-46
2021/09/13 09:07:23;;;;;;;;;;;;;;;20.06;70.83;101963.50;5049818;28;20403;-47
2021/09/13 09:10:08;;;;;;;;;;;;;;;20.35;70.92;101959.22;5051727;28;19925;-54
2021/09/13 09:12:43;;;;;;;;;;;;;;;20.34;68.97;101961.06;5048789;28;19940;-51
2021/09/13 09:15:10;;;;;;;;;;;;;;;20.32;67.08;101963.00;5050136;28;19929;-49
2021/09/13 09:17:37;;;;;;;;;;;;;;;20.27;68.00;101954.56;5052079;28;19925;-52
2021/09/13 09:20:03;;;;;;;;;;;;;;;20.14;67.68;101957.50;5050039;28;19929;-53
2021/09/13 09:22:30;;;;;;;;;;;;;;;20.17;67.64;101957.22;5051830;28;20314;-53
2021/09/13 09:24:57;;;;;;;;;;;;;;;19.94;68.90;101964.56;5051593;28;19986;-50
2021/09/13 09:27:24;;;;;;;;;;;;;;;19.81;70.30;101962.16;5048296;28;19929;-54
2021/09/13 09:29:51;;;;;;;;;;;;;;;19.81;70.56;101955.94;5051954;28;19932;-52
2021/09/13 09:32:20;;;;;;;;;;;;;;;19.75;70.60;101960.81;5033242;28;19979;-53
2021/09/13 09:34:47;;;;;;;;;;;;;;;19.73;70.49;101967.28;5050571;28;19925;-53
2021/09/13 09:37:13;;;;;;;;;;;;;;;19.68;70.27;101966.81;5049493;28;20441;-50
2021/09/13 09:39:42;;;;;;;;;;;;;;;19.47;70.68;101967.69;5051531;28;19934;-53
2021/09/13 09:42:10;;;;;;;;;;;;;;;19.57;70.74;101967.75;5049680;28;19932;-53
2021/09/13 09:44:38;;;;;;;;;;;;;;;19.39;72.23;101964.84;5051007;28;19925;-53
2021/09/13 09:47:11;;;;;;;;;;;;;;;19.32;73.19;101961.84;5050073;28;19929;-52
2021/09/13 09:49:42;;;;;;;;;;;;;;;19.32;73.92;101955.66;5049290;28;19936;-50
2021/09/13 09:52:09;;;;;;;;;;;;;;;19.27;74.31;101957.88;5049819;28;19925;-52
2021/09/13 09:54:38;;;;;;;;;;;;;;;19.31;74.66;101960.16;5051064;28;19928;-52
2021/09/13 09:57:08;;;;;;;;;;;;;;;19.28;74.07;101967.56;5031984;28;19989;-54
2021/09/13 09:59:38;;;;;;;;;;;;;;;19.29;72.88;101964.75;5050881;28;19933;-53
2021/09/13 10:02:11;;;;;;;;;;;;;;;19.40;72.21;101958.50;5051223;28;19932;-53
2021/09/13 10:04:42;;;;;;;;;;;;;;;19.42;71.73;101949.41;5050136;28;19929;-53
2021/09/13 10:07:12;;;;;;;;;;;;;;;19.39;71.28;101957.66;5051045;28;20643;-53
2021/09/13 10:09:39;;;;;;;;;;;;;;;19.53;70.62;101955.66;5050897;28;19929;-52
2021/09/13 10:12:06;;;;;;;;;;;;;;;19.48;71.10;101960.53;5031667;28;20518;-54
2021/09/13 10:14:33;;;;;;;;;;;;;;;19.57;70.64;101949.91;5050125;28;20348;-51
2021/09/13 10:17:00;;;;;;;;;;;;;;;19.67;70.28;101944.63;5049250;28;20671;-50
2021/09/13 10:19:47;;;;;;;;;;;;;;;19.68;69.44;101940.97;5049353;28;19994;-43
2021/09/13 10:22:13;;;;;;;;;;;;;;;19.77;70.37;101942.00;5049045;28;19924;-46
2021/09/13 10:24:40;;;;;;;;;;;;;;;19.88;69.86;101936.59;5050079;28;19932;-43
2021/09/13 10:27:08;;;;;;;;;;;;;;;19.85;69.24;101944.03;5048135;28;20372;-46
2021/09/13 10:29:35;;;;;;;;;;;;;;;20.00;68.79;101934.69;5049987;28;19928;-43
2021/09/13 10:32:06;;;;;;;;;;;;;;;19.98;68.31;101941.97;5050093;28;20400;-52
2021/09/13 10:34:34;;;;;;;;;;;;;;;19.99;67.36;101935.66;5048204;28;19929;-54
2021/09/13 10:37:10;;;;;;;;;;;;;;;20.15;65.66;101943.16;5049819;28;19928;-54
2021/09/13 10:39:46;;;;;;;;;;;;;;;20.04;65.34;101935.25;5049558;28;20392;-52
2021/09/13 10:42:36;;;;;;;;;;;;;;;20.23;66.45;101927.31;5048252;28;19925;-54
2021/09/13 10:45:09;;;;;;;;;;;;;;;20.32;64.54;101927.47;5044800;28;19954;-52
2021/09/13 10:47:36;;;;;;;;;;;;;;;20.37;65.11;101922.53;5048338;28;19932;-54
2021/09/13 10:50:12;;;;;;;;;;;;;;;20.66;63.62;101922.56;5049554;28;19928;-52
2021/09/13 10:52:39;;;;;;;;;;;;;;;21.11;63.38;101927.34;5050173;28;20047;-52
2021/09/13 10:55:08;;;;;;;;;;;;;;;21.35;59.82;101927.84;5049533;28;19929;-54
2021/09/13 10:57:53;;;;;;;;;;;;;;;21.57;60.17;101924.03;5048441;28;20012;-49
2021/09/13 11:00:43;;;;;;;;;;;;;;;21.90;62.58;101924.47;5049485;28;19928;-53
2021/09/13 11:03:22;;;;;;;;;;;;;;;22.43;60.87;101921.06;5043301;28;20024;-53
2021/09/13 11:08:38;;;;;;;;;;;;;;;22.44;56.59;101916.53;5049545;28;19925;-51
2021/09/13 11:11:08;;;;;;;;;;;;;;;22.67;57.04;101911.56;5047670;28;19929;-54
2021/09/13 11:13:35;;;;;;;;;;;;;;;23.23;57.38;101903.28;5048189;28;19932;-54
2021/09/13 11:16:02;;;;;;;;;;;;;;;23.68;55.30;101902.19;5048667;28;19929;-53
2021/09/13 11:18:32;;;;;;;;;;;;;;;23.38;55.25;101907.09;5047661;28;19964;-54
2021/09/13 11:21:12;;;;;;;;;;;;;;;23.78;55.23;101904.78;5047920;28;20350;-52
2021/09/13 11:23:39;;;;;;;;;;;;;;;24.15;53.80;101895.50;5049779;28;19925;-46
2021/09/13 11:26:06;;;;;;;;;;;;;;;24.29;53.84;101900.22;5049525;28;19937;-46
2021/09/13 11:28:32;;;;;;;;;;;;;;;24.04;54.20;101896.66;5047961;28;20391;-44
2021/09/13 11:31:02;;;;;;;;;;;;;;;24.00;54.34;101898.00;5047517;28;19924;-43
2021/09/13 11:33:29;;;;;;;;;;;;;;;24.05;53.73;101892.97;5045750;28;20303;-44
2021/09/13 11:35:56;;;;;;;;;;;;;;;23.83;54.70;101893.53;5048695;28;20023;-49
2021/09/13 11:38:22;;;;;;;;;;;;;;;23.79;54.54;101885.81;5048983;28;19974;-45
2021/09/13 11:40:49;;;;;;;;;;;;;;;23.46;55.00;101882.13;5049071;28;20330;-48
2021/09/13 11:43:16;;;;;;;;;;;;;;;23.34;55.05;101884.25;5046361;28;20382;-44
2021/09/13 11:45:43;;;;;;;;;;;;;;;23.15;54.87;101876.41;5048887;28;19928;-46
2021/09/13 11:48:09;;;;;;;;;;;;;;;23.37;55.25;101875.03;5048642;28;20387;-45
2021/09/13 11:50:36;;;;;;;;;;;;;;;23.34;55.31;101876.22;5048445;28;19929;-44
2021/09/13 11:53:13;;;;;;;;;;;;;;;23.30;55.00;101874.81;5047836;28;19979;-45
2021/09/13 11:55:40;;;;;;;;;;;;;;;23.48;55.17;101879.28;5047184;28;20011;-44
2021/09/13 11:58:08;;;;;;;;;;;;;;;23.38;53.44;101882.09;5047039;28;19931;-43
2021/09/13 12:00:38;;;;;;;;;;;;;;;23.61;52.75;101879.69;5048975;28;20384;-43
2021/09/13 12:03:06;;;;;;;;;;;;;;;23.51;52.67;101887.84;5048407;28;19929;-44
2021/09/13 12:05:34;;;;;;;;;;;;;;;23.63;51.99;101877.69;5048086;28;19933;-47
2021/09/13 12:08:01;;;;;;;;;;;;;;;23.65;51.84;101875.66;5047821;28;20028;-42
2021/09/13 12:10:32;;;;;;;;;;;;;;;23.55;51.83;101875.78;5048471;28;19951;-45
2021/09/13 12:13:00;;;;;;;;;;;;;;;23.43;52.74;101869.88;5047496;28;19928;-43
2021/09/13 12:15:29;;;;;;;;;;;;;;;23.40;52.39;101867.50;5046686;28;19932;-43
2021/09/13 12:17:56;;;;;;;;;;;;;;;23.33;52.75;101870.97;5048239;28;19933;-44
2021/09/13 12:20:24;;;;;;;;;;;;;;;23.34;52.33;101864.63;5048182;28;19929;-44
2021/09/13 12:22:58;;;;;;;;;;;;;;;23.52;51.77;101870.75;5048196;28;19929;-45
2021/09/13 12:25:25;;;;;;;;;;;;;;;24.03;51.63;101861.91;5045958;28;19975;-43
2021/09/13 12:27:53;;;;;;;;;;;;;;;24.20;48.16;101860.94;5046795;28;19960;-46
2021/09/13 12:30:21;;;;;;;;;;;;;;;24.54;47.82;101864.47;5048314;28;20395;-43
2021/09/13 12:32:48;;;;;;;;;;;;;;;24.86;47.00;101854.75;5048535;28;19979;-48
2021/09/13 12:35:15;;;;;;;;;;;;;;;24.58;47.11;101857.75;5047535;28;20395;-48
2021/09/13 12:37:41;;;;;;;;;;;;;;;24.54;47.53;101857.25;5048705;28;19929;-49
2021/09/13 12:40:17;;;;;;;;;;;;;;;24.45;46.80;101856.41;5047974;28;19931;-52
2021/09/13 12:42:52;;;;;;;;;;;;;;;24.23;48.02;101852.53;5048294;28;19983;-53
2021/09/13 12:45:19;;;;;;;;;;;;;;;24.23;47.28;101846.31;5052126;28;19928;-51
2021/09/13 12:47:53;;;;;;;;;;;;;;;24.59;47.48;101836.06;5051817;28;19982;-50